Au Sable Chasm, New York
Current Conditions -  °F | °C
As of 1:53 AM on Wednesday 22 Oct 2014 (Local Time) from KPBG Reporting Station
Overcast Overcast  
Wind Chill: 38°   Ceiling: 900
Heat Index: 44°   Visibility: 10mi
Dew Point: 42°   Wind: 13mph
Humidity: 93%   Direction: 350°N
Pressure: 30.12"   Gusts: NA
Location:  44.5125°N, 73.5235°W
Report Text: KPBG 220553Z AUTO 35011KT 10SM OVC009 07/06 A3012 RMK AO2 SLP202 60000 T00670056 10072 20067 51004
Loading
Personal Weather Stations






























Interactive Weather Map
Tropical Storm Tracking
New forecast layout! Learn more

10-Day Weather Forecast

Advertisements
Track Severe Weather on mobile